Los Posos, Valles Caldera, New Mexico Weather observations

Data are for 10 minute period ending at time listed.
 Day   Time   Solar   Ave.   Ave.  Ave.  Vector  Max.   Baro.   Total    
  of    of     Rad.   Air    Rel.  Wind   Wind   Wind  Press.  Precip.   
Year   Day            Temp.  Hum.  Speed  Dir.   Gust                    
2017   (MST)  Kw/m2    F      %     mph   deg.    mph    mb.     in.     
-------------------------------------------------------------------------
 175    3:30   0.00   52.6    86    3.3   164     6.6   99999.0    0.00 
 175    3:40   0.00   52.5    87    3.3   162     6.6   99999.0    0.00 
 175    3:50   0.00   52.4    86    2.7   186     7.8   99999.0    0.00 
 175    4:00   0.00   52.3    86    2.8   181     6.6   99999.0    0.00 
 175    4:10   0.00   52.1    86    2.3   167     6.6   99999.0    0.00 
 175    4:20   0.00   52.1    87    1.9   201     5.4   99999.0    0.00 
 175    4:30   0.00   52.0    87    1.5   168     4.2   99999.0    0.00 
 175    4:40   0.00   52.0    88    3.2   197     6.6   99999.0    0.00 
 175    4:50   0.00   51.8    89    2.7   211     6.0   99999.0    0.00 
 175    5:00   0.00   51.8    89    2.7   194     6.0   99999.0    0.00 
 175    5:10   0.01   51.7    90    2.6   210     4.8   99999.0    0.00 
 175    5:20   0.01   51.7    89    3.1   193     6.6   99999.0    0.00 
 175    5:30   0.01   51.7    90    2.9   208     6.0   99999.0    0.00 
 175    5:40   0.03   51.7    90    2.8   212     5.4   99999.0    0.00 
 175    5:50   0.03   51.8    90    2.7   230     4.2   99999.0    0.00 
 175    6:00   0.05   52.0    89    2.8   208     5.4   99999.0    0.00 
 175    6:10   0.06   52.2    88    2.8   196     5.4   99999.0    0.00 
 175    6:20   0.09   52.4    88    2.3   182     4.8   99999.0    0.00 
 175    6:30   0.12   52.7    88    1.9   160     5.4   99999.0    0.00 
 175    6:40   0.25   53.4    86    2.6   137     4.2   99999.0    0.00 
 175    6:50   0.30   54.9    82    2.2   127     3.6   99999.0    0.00 
 175    7:00   0.30   56.4    79    2.4   105     4.8   99999.0    0.00 
 175    7:10   0.33   58.5    74    0.7    32     1.8   99999.0    0.00 
 175    7:20   0.35   60.2    71    1.7   355     3.6   99999.0    0.00 
 175    7:30   0.39   61.4    69    3.5   322     5.4   99999.0    0.00 
 175    7:40   0.43   61.3    69    2.3   314     4.2   99999.0    0.00 
 175    7:50   0.45   61.8    67    2.3   206     4.2   99999.0    0.00 
 175    8:00   0.49   62.2    66    3.2   167     7.2   99999.0    0.00 
 175    8:10   0.53   62.1    67    4.8   159     8.4   99999.0    0.00 
 175    8:20   0.55   62.1    67    5.2   155     8.4   99999.0    0.00 
 175    8:30   0.57   62.9    66    5.6   164     9.6   99999.0    0.00 
 175    8:40   0.62   63.0    66    6.2   159    10.2   99999.0    0.00 
 175    8:50   0.66   64.6    63    4.6   194     9.0   99999.0    0.00 
 175    9:00   0.62   65.5    61    4.3   150    11.9   99999.0    0.00 
 175    9:10   0.65   67.4    57    3.4   134     7.2   99999.0    0.00 
 175    9:20   0.68   68.1    56    4.2   204     9.0   99999.0    0.00 
 175    9:30   0.73   67.2    58    7.6   200    12.5   99999.0    0.00 
 175    9:40   0.75   67.2    59    7.1   178    12.5   99999.0    0.00 
 175    9:50   0.79   67.8    57    7.6   183    14.3   99999.0    0.00 
 175   10:00   0.83   67.7    56    8.3   170    14.3   99999.0    0.00 
 175   10:10   0.85   67.9    56    7.5   179    13.7   99999.0    0.00 
 175   10:20   0.86   68.4    54    8.0   187    14.3   99999.0    0.00 
 175   10:30   0.86   68.7    53    9.0   176    17.9   99999.0    0.00 
 175   10:40   0.90   67.2    56    9.8   187    15.5   99999.0    0.00 
 175   10:50   0.91   67.2    55    8.9   182    15.5   99999.0    0.00 
 175   11:00   0.94   67.3    55    9.2   174    15.5   99999.0    0.00 
 175   11:10   0.96   68.2    53    9.1   195    14.3   99999.0    0.00 
 175   11:20   0.97   68.7    52    9.1   184    20.3   99999.0    0.00 
 175   11:30   0.98   69.0    51    8.9   200    14.3   99999.0    0.00 
 175   11:40   0.99   68.8    51    8.9   188    16.7   99999.0    0.00 
 175   11:50   1.03   69.4    50    9.1   190    14.9   99999.0    0.00 
 175   12:00   1.06   69.9    48    8.8   171    17.3   99999.0    0.00 
 175   12:10   1.06   71.3    44    8.2   176    14.9   99999.0    0.00 
 175   12:20   0.97   71.9    42    6.9   215    13.1   99999.0    0.00 
 175   12:30   0.81   71.5    44    7.5   209    15.5   99999.0    0.00 
 175   12:40   0.78   71.1    43    7.5   191    12.5   99999.0    0.00 
 175   12:50   1.05   71.4    42    8.8   178    15.5   99999.0    0.00 
 175   13:00   0.87   71.9    42    7.4   172    19.1   99999.0    0.00 
 175   13:10   0.93   71.6    41    8.0   158    14.3   99999.0    0.00 
 175   13:20   0.80   70.9    42    7.9   165    14.9   99999.0    0.00 
 175   13:30   0.74   70.4    44    8.7   157    16.1   99999.0    0.00 
 175   13:40   0.41   70.5    42    7.2   160    14.3   99999.0    0.00 
 175   13:50   0.21   69.3    44    5.1   123     9.6   99999.0    0.00 
 175   14:00   0.15   68.1    49    7.9    72    16.1   99999.0    0.00 
 175   14:10   0.13   66.6    51    7.6   138    12.5   99999.0    0.00 
 175   14:20   0.24   66.7    50    8.2   166    13.7   99999.0    0.00 
 175   14:30   0.63   68.8    47    8.6   165    16.1   99999.0    0.00 
 175   14:40   0.67   70.9    44    8.2   178    16.1   99999.0    0.00 
 175   14:50   0.17   68.2    47    7.4   171    13.7   99999.0    0.00 
 175   15:00   0.16   67.2    49    8.0   166    12.5   99999.0    0.00 
 175   15:10   0.09   67.0    49    5.2   181    10.8   99999.0    0.00 
 175   15:20   0.40   67.2    48    7.3   204    13.1   99999.0    0.00 
 175   15:30   0.81   70.6    43    7.7   190    11.9   99999.0    0.00 
 175   15:40   0.49   70.1    41    8.4   183    13.1   99999.0    0.00 
 175   15:50   0.12   66.2    47    7.9   192    14.9   99999.0    0.00 
 175   16:00   0.27   65.6    51    7.4   206    13.1   99999.0    0.00 
 175   16:10   0.46   67.9    49    9.4   201    16.1   99999.0    0.00 
 175   16:20   0.32   67.9    50    7.6   195    14.3   99999.0    0.00 
 175   16:30   0.42   69.6    46    8.4   180    16.1   99999.0    0.00 
 175   16:40   0.48   69.3    46    8.6   182    14.9   99999.0    0.00 
 175   16:50   0.18   67.7    47    7.3   181    12.5   99999.0    0.00 
 175   17:00   0.34   67.8    48    4.8   195     9.6   99999.0    0.00 
 175   17:10   0.44   69.9    44    5.2   197     8.4   99999.0    0.00 
 175   17:20   0.33   69.7    44    6.2   193    10.2   99999.0    0.00 
 175   17:30   0.36   69.7    45    6.4   199    11.3   99999.0    0.00 
 175   17:40   0.28   68.5    46    6.4   197     9.6   99999.0    0.00 
 175   17:50   0.27   67.7    48    6.2   188    11.3   99999.0    0.00 
 175   18:00   0.23   67.3    48    7.1   193    11.3   99999.0    0.00 
 175   18:10   0.20   66.4    48    8.1   197    13.1   99999.0    0.00 
 175   18:20   0.18   65.6    49    7.6   194    13.7   99999.0    0.00 
 175   18:30   0.15   65.5    49    6.3   202    10.8   99999.0    0.00 
 175   18:40   0.12   65.1    49    6.2   197    13.1   99999.0    0.00 
 175   18:50   0.09   64.6    50    5.7   210    12.5   99999.0    0.00 
 175   19:00   0.06   64.2    50    4.3   206     9.0   99999.0    0.00 
 175   19:10   0.02   62.8    52    5.8   221    10.2   99999.0    0.00 
 175   19:20   0.01   62.3    52    6.8   196    15.5   99999.0    0.00 
 175   19:30   0.01   62.4    52    6.9   197    12.5   99999.0    0.00 
 175   19:40   0.00   62.5    53    5.6   193    10.8   99999.0    0.00 
 175   19:50   0.00   61.8    54    5.6   191     9.6   99999.0    0.00 
 175   20:00   0.00   60.9    55    5.4   183    10.8   99999.0    0.00 
 175   20:10   0.00   60.9    54    5.5   200    11.9   99999.0    0.00 
 175   20:20   0.00   60.5    55    4.8   194    10.2   99999.0    0.00 
 175   20:30   0.00   59.9    57    5.8   195    12.5   99999.0    0.00 
 175   20:40   0.00   59.3    59    6.2   195    12.5   99999.0    0.00 
 175   20:50   0.00   58.9    60    5.1   208     9.6   99999.0    0.00 
 175   21:00   0.00   59.0    59    7.3   192    13.7   99999.0    0.00 
 175   21:10   0.00   58.2    61    4.2   200     9.0   99999.0    0.00 
 175   21:20   0.00   57.1    63    3.6   208     7.2   99999.0    0.00 
 175   21:30   0.00   56.9    64    3.3   214     7.2   99999.0    0.00 
 175   21:40   0.00   56.5    64    2.9   175     6.0   99999.0    0.00 
 175   21:50   0.00   55.5    66    3.1   161     5.4   99999.0    0.00 
 175   22:00   0.00   55.2    67    3.1   191     6.6   99999.0    0.00 
 175   22:10   0.00   55.1    67    2.6   186     5.4   99999.0    0.00 
 175   22:20   0.00   54.1    69    2.4   240     4.8   99999.0    0.00 
 175   22:30   0.00   53.6    70    3.2   226     8.4   99999.0    0.00 
 175   22:40   0.00   53.9    72    4.3   188     8.4   99999.0    0.00 
 175   22:50   0.00   54.4    74    6.6   184    11.9   99999.0    0.00 
 175   23:00   0.00   54.7    76    5.6   189    10.8   99999.0    0.00 
 175   23:10   0.00   54.6    79    7.2   186    14.3   99999.0    0.00 
 175   23:20   0.00   54.3    81    5.1   192    10.8   99999.0    0.00 
 175   23:30   0.00   54.0    82    4.3   210     8.4   99999.0    0.00 
 175   23:40   0.00   53.8    83    3.7   229    10.2   99999.0    0.00 
 175   23:50   0.00   53.5    84    2.8   218     6.0   99999.0    0.00 
 176    0:00   0.00   53.2    86    3.5   207     9.0   99999.0    0.00 
 176    0:10   0.00   53.2    87    3.6   195     7.2   99999.0    0.00 
 176    0:20   0.00   53.3    87    4.8   205     8.4   99999.0    0.00 
 176    0:30   0.00   53.4    87    5.3   196    12.5   99999.0    0.00 
 176    0:40   0.00   53.4    87    4.4   197     8.4   99999.0    0.00 
 176    0:50   0.00   53.4    87    5.8   190    11.9   99999.0    0.00 
 176    1:00   0.00   53.3    88    4.9   184     9.6   99999.0    0.00 
 176    1:10   0.00   53.3    88    5.4   190     9.6   99999.0    0.00 
 176    1:20   0.00   53.2    88    5.0   188     9.6   99999.0    0.00 
 176    1:30   0.00   53.2    87    6.0   184    12.5   99999.0    0.00 
 176    1:40   0.00   53.2    88    6.2   162    11.9   99999.0    0.00 
 176    1:50   0.00   53.1    88    5.3   166     9.0   99999.0    0.00 
 176    2:00   0.00   53.2    87    5.7   176    11.3   99999.0    0.00 
 176    2:10   0.00   53.2    87    5.2   166    11.9   99999.0    0.00 
 176    2:20   0.00   53.2    87    5.1   160     9.0   99999.0    0.00 
 176    2:30   0.00   53.0    88    3.9   156     7.2   99999.0    0.00 
 176    2:40   0.00   53.0    88    3.9   148     7.8   99999.0    0.00 
 176    2:50   0.00   53.0    87    5.8   157    11.9   99999.0    0.00 
 176    3:00   0.00   53.1    87    5.7   158    10.2   99999.0    0.00 
 176    3:10   0.00   52.9    87    4.9   173    12.5   99999.0    0.00 
 176    3:20   0.00   52.6    89    5.1   172    12.5   99999.0    0.00 

Return to Los Posos, Valles Caldera graphs page.


Western Regional Climate Center,wrcc@dri.edu